sensor_id;sensor_type;location;lat;lon;timestamp;P1;durP1;ratioP1;P2;durP2;ratioP2
62401;SDS011;48440;51.224;22.506;2023-11-18T00:02:18;5.13;;;3.75;;
62401;SDS011;48440;51.224;22.506;2023-11-18T00:04:44;5.10;;;3.60;;
62401;SDS011;48440;51.224;22.506;2023-11-18T00:07:09;4.30;;;3.55;;
62401;SDS011;48440;51.224;22.506;2023-11-18T00:09:35;3.88;;;3.35;;
62401;SDS011;48440;51.224;22.506;2023-11-18T00:12:01;5.40;;;3.42;;
62401;SDS011;48440;51.224;22.506;2023-11-18T00:14:29;4.13;;;3.65;;
62401;SDS011;48440;51.224;22.506;2023-11-18T00:16:54;3.28;;;2.88;;
62401;SDS011;48440;51.224;22.506;2023-11-18T00:19:20;4.30;;;3.47;;
62401;SDS011;48440;51.224;22.506;2023-11-18T00:21:45;3.55;;;3.13;;
62401;SDS011;48440;51.224;22.506;2023-11-18T00:24:11;3.83;;;3.05;;
62401;SDS011;48440;51.224;22.506;2023-11-18T00:26:36;3.75;;;2.97;;
62401;SDS011;48440;51.224;22.506;2023-11-18T00:29:01;4.80;;;3.45;;
62401;SDS011;48440;51.224;22.506;2023-11-18T00:31:27;3.58;;;2.80;;
62401;SDS011;48440;51.224;22.506;2023-11-18T00:33:52;4.40;;;3.53;;
62401;SDS011;48440;51.224;22.506;2023-11-18T00:36:18;3.72;;;3.20;;
62401;SDS011;48440;51.224;22.506;2023-11-18T00:38:44;3.95;;;2.88;;
62401;SDS011;48440;51.224;22.506;2023-11-18T00:41:09;3.80;;;3.08;;
62401;SDS011;48440;51.224;22.506;2023-11-18T00:43:35;3.42;;;2.90;;
62401;SDS011;48440;51.224;22.506;2023-11-18T00:46:01;3.35;;;2.85;;
62401;SDS011;48440;51.224;22.506;2023-11-18T00:48:28;3.55;;;2.97;;
62401;SDS011;48440;51.224;22.506;2023-11-18T00:50:55;3.85;;;3.08;;
62401;SDS011;48440;51.224;22.506;2023-11-18T00:53:21;3.97;;;2.90;;
62401;SDS011;48440;51.224;22.506;2023-11-18T00:55:46;3.33;;;2.95;;
62401;SDS011;48440;51.224;22.506;2023-11-18T00:58:12;3.72;;;3.00;;
62401;SDS011;48440;51.224;22.506;2023-11-18T01:00:39;3.90;;;3.13;;
62401;SDS011;48440;51.224;22.506;2023-11-18T01:03:04;4.05;;;2.78;;
62401;SDS011;48440;51.224;22.506;2023-11-18T01:05:30;3.40;;;2.53;;
62401;SDS011;48440;51.224;22.506;2023-11-18T01:07:56;3.45;;;2.83;;
62401;SDS011;48440;51.224;22.506;2023-11-18T01:10:22;3.30;;;2.72;;
62401;SDS011;48440;51.224;22.506;2023-11-18T01:12:47;4.18;;;2.75;;
62401;SDS011;48440;51.224;22.506;2023-11-18T01:15:13;3.60;;;3.25;;
62401;SDS011;48440;51.224;22.506;2023-11-18T01:17:39;4.05;;;3.20;;
62401;SDS011;48440;51.224;22.506;2023-11-18T01:20:05;3.35;;;2.80;;
62401;SDS011;48440;51.224;22.506;2023-11-18T01:22:36;3.50;;;2.70;;
62401;SDS011;48440;51.224;22.506;2023-11-18T01:25:07;3.70;;;3.00;;
62401;SDS011;48440;51.224;22.506;2023-11-18T01:27:34;3.42;;;2.85;;
62401;SDS011;48440;51.224;22.506;2023-11-18T01:29:59;3.42;;;2.95;;
62401;SDS011;48440;51.224;22.506;2023-11-18T01:32:25;4.55;;;3.00;;
62401;SDS011;48440;51.224;22.506;2023-11-18T01:34:51;3.00;;;2.70;;
62401;SDS011;48440;51.224;22.506;2023-11-18T01:37:18;3.10;;;2.80;;
62401;SDS011;48440;51.224;22.506;2023-11-18T01:39:46;4.30;;;3.05;;
62401;SDS011;48440;51.224;22.506;2023-11-18T01:42:12;3.85;;;2.72;;
62401;SDS011;48440;51.224;22.506;2023-11-18T01:44:37;4.00;;;3.20;;
62401;SDS011;48440;51.224;22.506;2023-11-18T01:47:02;3.30;;;2.80;;
62401;SDS011;48440;51.224;22.506;2023-11-18T01:49:31;4.65;;;3.13;;
62401;SDS011;48440;51.224;22.506;2023-11-18T01:51:57;3.25;;;2.42;;
62401;SDS011;48440;51.224;22.506;2023-11-18T01:54:24;3.08;;;2.63;;
62401;SDS011;48440;51.224;22.506;2023-11-18T01:56:50;3.63;;;2.70;;
62401;SDS011;48440;51.224;22.506;2023-11-18T01:59:20;3.20;;;2.78;;
62401;SDS011;48440;51.224;22.506;2023-11-18T02:01:49;3.55;;;2.78;;
62401;SDS011;48440;51.224;22.506;2023-11-18T02:04:18;3.35;;;2.80;;
62401;SDS011;48440;51.224;22.506;2023-11-18T02:06:45;3.08;;;2.78;;
62401;SDS011;48440;51.224;22.506;2023-11-18T02:09:12;3.45;;;2.95;;
62401;SDS011;48440;51.224;22.506;2023-11-18T02:11:39;3.65;;;2.90;;
62401;SDS011;48440;51.224;22.506;2023-11-18T02:14:13;3.87;;;2.40;;
62401;SDS011;48440;51.224;22.506;2023-11-18T02:16:41;3.58;;;2.88;;
62401;SDS011;48440;51.224;22.506;2023-11-18T02:19:09;3.35;;;2.67;;
62401;SDS011;48440;51.224;22.506;2023-11-18T02:21:48;2.97;;;2.33;;
62401;SDS011;48440;51.224;22.506;2023-11-18T02:24:27;3.13;;;2.47;;
62401;SDS011;48440;51.224;22.506;2023-11-18T02:26:58;3.03;;;2.67;;
62401;SDS011;48440;51.224;22.506;2023-11-18T02:29:25;3.47;;;3.17;;
62401;SDS011;48440;51.224;22.506;2023-11-18T02:31:52;3.95;;;2.70;;
62401;SDS011;48440;51.224;22.506;2023-11-18T02:34:28;2.97;;;2.50;;
62401;SDS011;48440;51.224;22.506;2023-11-18T02:36:57;3.33;;;2.60;;
62401;SDS011;48440;51.224;22.506;2023-11-18T02:39:42;3.22;;;2.65;;
62401;SDS011;48440;51.224;22.506;2023-11-18T02:42:10;3.58;;;2.60;;
62401;SDS011;48440;51.224;22.506;2023-11-18T02:44:38;3.45;;;2.72;;
62401;SDS011;48440;51.224;22.506;2023-11-18T02:47:04;2.92;;;2.38;;
62401;SDS011;48440;51.224;22.506;2023-11-18T02:49:30;3.45;;;2.60;;
62401;SDS011;48440;51.224;22.506;2023-11-18T02:51:57;3.13;;;2.42;;
62401;SDS011;48440;51.224;22.506;2023-11-18T02:54:22;3.15;;;2.38;;
62401;SDS011;48440;51.224;22.506;2023-11-18T02:56:48;2.97;;;2.33;;
62401;SDS011;48440;51.224;22.506;2023-11-18T02:59:14;2.78;;;2.40;;
62401;SDS011;48440;51.224;22.506;2023-11-18T03:01:42;3.45;;;2.75;;
62401;SDS011;48440;51.224;22.506;2023-11-18T03:04:09;3.75;;;2.70;;
62401;SDS011;48440;51.224;22.506;2023-11-18T03:06:35;3.38;;;2.60;;
62401;SDS011;48440;51.224;22.506;2023-11-18T03:09:01;2.97;;;2.47;;
62401;SDS011;48440;51.224;22.506;2023-11-18T03:11:27;2.97;;;2.35;;
62401;SDS011;48440;51.224;22.506;2023-11-18T03:13:56;3.00;;;2.53;;
62401;SDS011;48440;51.224;22.506;2023-11-18T03:16:22;3.10;;;2.42;;
62401;SDS011;48440;51.224;22.506;2023-11-18T03:18:49;3.95;;;2.70;;
62401;SDS011;48440;51.224;22.506;2023-11-18T03:21:16;3.58;;;2.83;;
62401;SDS011;48440;51.224;22.506;2023-11-18T03:23:41;3.03;;;2.72;;
62401;SDS011;48440;51.224;22.506;2023-11-18T03:26:08;3.10;;;2.60;;
62401;SDS011;48440;51.224;22.506;2023-11-18T03:28:33;2.83;;;2.13;;
62401;SDS011;48440;51.224;22.506;2023-11-18T03:31:01;2.72;;;2.33;;
62401;SDS011;48440;51.224;22.506;2023-11-18T03:33:28;2.90;;;2.08;;
62401;SDS011;48440;51.224;22.506;2023-11-18T03:35:54;3.25;;;2.50;;
62401;SDS011;48440;51.224;22.506;2023-11-18T03:38:21;3.22;;;2.60;;
62401;SDS011;48440;51.224;22.506;2023-11-18T03:40:46;3.15;;;2.72;;
62401;SDS011;48440;51.224;22.506;2023-11-18T03:43:12;2.65;;;2.20;;
62401;SDS011;48440;51.224;22.506;2023-11-18T03:45:41;3.00;;;2.50;;
62401;SDS011;48440;51.224;22.506;2023-11-18T03:48:07;2.88;;;2.22;;
62401;SDS011;48440;51.224;22.506;2023-11-18T03:50:36;2.97;;;2.40;;
62401;SDS011;48440;51.224;22.506;2023-11-18T03:53:01;2.80;;;2.30;;
62401;SDS011;48440;51.224;22.506;2023-11-18T03:55:28;2.67;;;2.30;;
62401;SDS011;48440;51.224;22.506;2023-11-18T03:57:54;3.35;;;2.33;;
62401;SDS011;48440;51.224;22.506;2023-11-18T04:00:20;2.85;;;2.20;;
62401;SDS011;48440;51.224;22.506;2023-11-18T04:02:46;3.13;;;2.40;;
62401;SDS011;48440;51.224;22.506;2023-11-18T04:05:13;3.40;;;2.83;;
62401;SDS011;48440;51.224;22.506;2023-11-18T04:07:38;2.95;;;2.50;;
62401;SDS011;48440;51.224;22.506;2023-11-18T04:10:07;2.95;;;2.40;;
62401;SDS011;48440;51.224;22.506;2023-11-18T04:12:35;2.78;;;2.20;;
62401;SDS011;48440;51.224;22.506;2023-11-18T04:15:00;3.85;;;2.60;;
62401;SDS011;48440;51.224;22.506;2023-11-18T04:17:26;2.40;;;2.15;;
62401;SDS011;48440;51.224;22.506;2023-11-18T04:19:53;3.55;;;2.42;;
62401;SDS011;48440;51.224;22.506;2023-11-18T04:22:20;2.97;;;2.35;;
62401;SDS011;48440;51.224;22.506;2023-11-18T04:24:47;3.30;;;2.20;;
62401;SDS011;48440;51.224;22.506;2023-11-18T04:27:12;2.70;;;2.40;;
62401;SDS011;48440;51.224;22.506;2023-11-18T04:29:38;2.85;;;2.33;;
62401;SDS011;48440;51.224;22.506;2023-11-18T04:32:05;3.10;;;2.40;;
62401;SDS011;48440;51.224;22.506;2023-11-18T04:34:35;3.00;;;2.30;;
62401;SDS011;48440;51.224;22.506;2023-11-18T04:37:01;3.17;;;2.47;;
62401;SDS011;48440;51.224;22.506;2023-11-18T04:39:28;3.10;;;2.22;;
62401;SDS011;48440;51.224;22.506;2023-11-18T04:41:55;2.90;;;2.33;;
62401;SDS011;48440;51.224;22.506;2023-11-18T04:44:21;2.78;;;2.38;;
62401;SDS011;48440;51.224;22.506;2023-11-18T04:46:47;2.80;;;2.33;;
62401;SDS011;48440;51.224;22.506;2023-11-18T04:49:12;2.75;;;2.33;;
62401;SDS011;48440;51.224;22.506;2023-11-18T04:51:38;4.20;;;2.55;;
62401;SDS011;48440;51.224;22.506;2023-11-18T04:54:03;3.15;;;2.60;;
62401;SDS011;48440;51.224;22.506;2023-11-18T04:56:29;3.03;;;2.30;;
62401;SDS011;48440;51.224;22.506;2023-11-18T04:58:54;3.13;;;2.63;;
62401;SDS011;48440;51.224;22.506;2023-11-18T05:01:21;3.05;;;2.47;;
62401;SDS011;48440;51.224;22.506;2023-11-18T05:03:47;4.05;;;2.40;;
62401;SDS011;48440;51.224;22.506;2023-11-18T05:06:12;2.97;;;2.40;;
62401;SDS011;48440;51.224;22.506;2023-11-18T05:08:38;2.50;;;2.20;;
62401;SDS011;48440;51.224;22.506;2023-11-18T05:11:03;3.53;;;2.78;;
62401;SDS011;48440;51.224;22.506;2023-11-18T05:13:32;3.00;;;2.60;;
62401;SDS011;48440;51.224;22.506;2023-11-18T05:15:58;3.03;;;2.45;;
62401;SDS011;48440;51.224;22.506;2023-11-18T05:18:24;2.78;;;2.47;;
62401;SDS011;48440;51.224;22.506;2023-11-18T05:20:50;2.53;;;2.20;;
62401;SDS011;48440;51.224;22.506;2023-11-18T05:23:15;2.88;;;2.33;;
62401;SDS011;48440;51.224;22.506;2023-11-18T05:25:41;3.15;;;2.33;;
62401;SDS011;48440;51.224;22.506;2023-11-18T05:28:08;2.75;;;2.40;;
62401;SDS011;48440;51.224;22.506;2023-11-18T05:30:37;2.97;;;2.42;;
62401;SDS011;48440;51.224;22.506;2023-11-18T05:33:06;2.88;;;2.17;;
62401;SDS011;48440;51.224;22.506;2023-11-18T05:35:32;3.22;;;2.50;;
62401;SDS011;48440;51.224;22.506;2023-11-18T05:37:58;2.72;;;2.33;;
62401;SDS011;48440;51.224;22.506;2023-11-18T05:40:27;3.15;;;2.40;;
62401;SDS011;48440;51.224;22.506;2023-11-18T05:42:54;2.95;;;2.45;;
62401;SDS011;48440;51.224;22.506;2023-11-18T05:45:20;3.35;;;2.60;;
62401;SDS011;48440;51.224;22.506;2023-11-18T05:47:55;3.50;;;2.58;;
62401;SDS011;48440;51.224;22.506;2023-11-18T05:50:22;2.63;;;2.15;;
62401;SDS011;48440;51.224;22.506;2023-11-18T05:52:49;3.13;;;2.65;;
62401;SDS011;48440;51.224;22.506;2023-11-18T05:55:15;3.83;;;2.63;;
62401;SDS011;48440;51.224;22.506;2023-11-18T05:57:41;3.85;;;2.63;;
62401;SDS011;48440;51.224;22.506;2023-11-18T06:00:14;3.08;;;2.47;;
62401;SDS011;48440;51.224;22.506;2023-11-18T06:02:40;3.78;;;2.60;;
62401;SDS011;48440;51.224;22.506;2023-11-18T06:05:06;3.38;;;2.60;;
62401;SDS011;48440;51.224;22.506;2023-11-18T06:07:32;2.97;;;2.47;;
62401;SDS011;48440;51.224;22.506;2023-11-18T06:09:59;3.28;;;2.38;;
62401;SDS011;48440;51.224;22.506;2023-11-18T06:12:24;3.50;;;2.55;;
62401;SDS011;48440;51.224;22.506;2023-11-18T06:14:49;4.00;;;2.95;;
62401;SDS011;48440;51.224;22.506;2023-11-18T06:17:16;3.55;;;2.70;;
62401;SDS011;48440;51.224;22.506;2023-11-18T06:19:44;2.83;;;2.40;;
62401;SDS011;48440;51.224;22.506;2023-11-18T06:22:09;3.97;;;2.40;;
62401;SDS011;48440;51.224;22.506;2023-11-18T06:24:35;2.55;;;2.35;;
62401;SDS011;48440;51.224;22.506;2023-11-18T06:27:01;3.00;;;2.50;;
62401;SDS011;48440;51.224;22.506;2023-11-18T06:29:26;3.47;;;2.72;;
62401;SDS011;48440;51.224;22.506;2023-11-18T06:31:54;2.97;;;2.67;;
62401;SDS011;48440;51.224;22.506;2023-11-18T06:34:19;3.05;;;2.28;;
62401;SDS011;48440;51.224;22.506;2023-11-18T06:36:46;3.60;;;2.78;;
62401;SDS011;48440;51.224;22.506;2023-11-18T06:39:11;3.70;;;2.83;;
62401;SDS011;48440;51.224;22.506;2023-11-18T06:41:38;3.75;;;2.58;;
62401;SDS011;48440;51.224;22.506;2023-11-18T06:44:13;2.65;;;2.30;;
62401;SDS011;48440;51.224;22.506;2023-11-18T06:46:43;4.05;;;2.80;;
62401;SDS011;48440;51.224;22.506;2023-11-18T06:49:09;3.17;;;2.88;;
62401;SDS011;48440;51.224;22.506;2023-11-18T06:51:35;4.00;;;3.00;;
62401;SDS011;48440;51.224;22.506;2023-11-18T06:54:02;3.53;;;2.60;;
62401;SDS011;48440;51.224;22.506;2023-11-18T06:56:34;3.25;;;2.90;;
62401;SDS011;48440;51.224;22.506;2023-11-18T06:59:01;2.88;;;2.55;;
62401;SDS011;48440;51.224;22.506;2023-11-18T07:01:27;3.40;;;3.05;;
62401;SDS011;48440;51.224;22.506;2023-11-18T07:03:54;3.92;;;2.70;;
62401;SDS011;48440;51.224;22.506;2023-11-18T07:06:21;3.55;;;2.70;;
62401;SDS011;48440;51.224;22.506;2023-11-18T07:08:51;3.08;;;2.58;;
62401;SDS011;48440;51.224;22.506;2023-11-18T07:11:18;3.50;;;2.70;;
62401;SDS011;48440;51.224;22.506;2023-11-18T07:13:45;3.55;;;2.60;;
62401;SDS011;48440;51.224;22.506;2023-11-18T07:16:12;3.17;;;2.47;;
62401;SDS011;48440;51.224;22.506;2023-11-18T07:18:39;3.42;;;2.90;;
62401;SDS011;48440;51.224;22.506;2023-11-18T07:21:05;3.95;;;2.90;;
62401;SDS011;48440;51.224;22.506;2023-11-18T07:23:34;4.57;;;3.17;;
62401;SDS011;48440;51.224;22.506;2023-11-18T07:26:00;3.40;;;2.90;;
62401;SDS011;48440;51.224;22.506;2023-11-18T07:28:26;3.80;;;2.88;;
62401;SDS011;48440;51.224;22.506;2023-11-18T07:30:52;3.90;;;2.95;;
62401;SDS011;48440;51.224;22.506;2023-11-18T07:33:18;3.72;;;2.72;;
62401;SDS011;48440;51.224;22.506;2023-11-18T07:35:44;4.03;;;2.85;;
62401;SDS011;48440;51.224;22.506;2023-11-18T07:38:13;3.30;;;2.65;;
62401;SDS011;48440;51.224;22.506;2023-11-18T07:40:40;3.50;;;2.80;;
62401;SDS011;48440;51.224;22.506;2023-11-18T07:43:16;4.30;;;3.00;;
62401;SDS011;48440;51.224;22.506;2023-11-18T07:45:42;5.35;;;3.20;;
62401;SDS011;48440;51.224;22.506;2023-11-18T07:48:08;4.22;;;2.90;;
62401;SDS011;48440;51.224;22.506;2023-11-18T07:50:36;4.97;;;3.25;;
62401;SDS011;48440;51.224;22.506;2023-11-18T07:53:03;3.33;;;2.90;;
62401;SDS011;48440;51.224;22.506;2023-11-18T07:55:31;4.88;;;3.15;;
62401;SDS011;48440;51.224;22.506;2023-11-18T07:58:01;4.32;;;2.85;;
62401;SDS011;48440;51.224;22.506;2023-11-18T08:00:28;4.50;;;2.83;;
62401;SDS011;48440;51.224;22.506;2023-11-18T08:02:59;4.18;;;2.88;;
62401;SDS011;48440;51.224;22.506;2023-11-18T08:05:25;3.30;;;2.60;;
62401;SDS011;48440;51.224;22.506;2023-11-18T08:07:53;3.60;;;2.75;;
62401;SDS011;48440;51.224;22.506;2023-11-18T08:10:18;3.75;;;2.70;;
62401;SDS011;48440;51.224;22.506;2023-11-18T08:12:44;3.58;;;2.60;;
62401;SDS011;48440;51.224;22.506;2023-11-18T08:15:10;3.65;;;2.67;;
62401;SDS011;48440;51.224;22.506;2023-11-18T08:17:35;3.75;;;2.88;;
62401;SDS011;48440;51.224;22.506;2023-11-18T08:20:01;3.30;;;2.70;;
62401;SDS011;48440;51.224;22.506;2023-11-18T08:22:33;3.92;;;3.05;;
62401;SDS011;48440;51.224;22.506;2023-11-18T08:24:59;3.25;;;2.90;;
62401;SDS011;48440;51.224;22.506;2023-11-18T08:27:24;3.13;;;2.60;;
62401;SDS011;48440;51.224;22.506;2023-11-18T08:29:50;3.97;;;3.22;;
62401;SDS011;48440;51.224;22.506;2023-11-18T08:32:15;4.25;;;3.50;;
62401;SDS011;48440;51.224;22.506;2023-11-18T08:34:41;3.45;;;3.05;;
62401;SDS011;48440;51.224;22.506;2023-11-18T08:37:06;4.57;;;3.08;;
62401;SDS011;48440;51.224;22.506;2023-11-18T08:39:32;4.43;;;3.08;;
62401;SDS011;48440;51.224;22.506;2023-11-18T08:41:58;4.85;;;3.60;;
62401;SDS011;48440;51.224;22.506;2023-11-18T08:44:23;3.72;;;3.40;;
62401;SDS011;48440;51.224;22.506;2023-11-18T08:46:50;4.63;;;3.70;;
62401;SDS011;48440;51.224;22.506;2023-11-18T08:49:17;5.15;;;3.50;;
62401;SDS011;48440;51.224;22.506;2023-11-18T08:51:46;4.28;;;3.33;;
62401;SDS011;48440;51.224;22.506;2023-11-18T08:54:15;4.22;;;3.47;;
62401;SDS011;48440;51.224;22.506;2023-11-18T08:57:03;4.82;;;3.58;;
62401;SDS011;48440;51.224;22.506;2023-11-18T08:59:44;4.03;;;3.60;;
62401;SDS011;48440;51.224;22.506;2023-11-18T09:02:10;5.43;;;3.70;;
62401;SDS011;48440;51.224;22.506;2023-11-18T09:04:40;4.50;;;3.30;;
62401;SDS011;48440;51.224;22.506;2023-11-18T09:07:08;5.18;;;3.50;;
62401;SDS011;48440;51.224;22.506;2023-11-18T09:09:35;4.03;;;3.63;;
62401;SDS011;48440;51.224;22.506;2023-11-18T09:12:00;4.22;;;3.45;;
62401;SDS011;48440;51.224;22.506;2023-11-18T09:14:28;4.72;;;3.50;;
62401;SDS011;48440;51.224;22.506;2023-11-18T09:16:53;4.75;;;3.47;;
62401;SDS011;48440;51.224;22.506;2023-11-18T09:19:24;4.97;;;4.00;;
62401;SDS011;48440;51.224;22.506;2023-11-18T09:21:50;4.20;;;3.20;;
62401;SDS011;48440;51.224;22.506;2023-11-18T09:24:17;4.82;;;3.63;;
62401;SDS011;48440;51.224;22.506;2023-11-18T09:26:45;4.15;;;3.70;;
62401;SDS011;48440;51.224;22.506;2023-11-18T09:29:13;4.68;;;3.95;;
62401;SDS011;48440;51.224;22.506;2023-11-18T09:31:43;4.90;;;3.88;;
62401;SDS011;48440;51.224;22.506;2023-11-18T09:34:13;4.78;;;3.80;;
62401;SDS011;48440;51.224;22.506;2023-11-18T09:36:42;4.57;;;3.53;;
62401;SDS011;48440;51.224;22.506;2023-11-18T09:39:08;4.55;;;3.80;;
62401;SDS011;48440;51.224;22.506;2023-11-18T09:41:40;4.50;;;3.85;;
62401;SDS011;48440;51.224;22.506;2023-11-18T09:44:05;5.43;;;4.35;;
62401;SDS011;48440;51.224;22.506;2023-11-18T09:46:31;4.22;;;3.67;;
62401;SDS011;48440;51.224;22.506;2023-11-18T09:49:06;5.28;;;3.80;;
62401;SDS011;48440;51.224;22.506;2023-11-18T09:51:50;4.22;;;3.67;;
62401;SDS011;48440;51.224;22.506;2023-11-18T09:57:26;4.50;;;3.60;;
62401;SDS011;48440;51.224;22.506;2023-11-18T10:00:05;4.63;;;4.00;;
62401;SDS011;48440;51.224;22.506;2023-11-18T10:02:51;3.85;;;3.45;;
62401;SDS011;48440;51.224;22.506;2023-11-18T10:05:22;5.25;;;3.78;;
62401;SDS011;48440;51.224;22.506;2023-11-18T10:07:52;4.35;;;3.72;;
62401;SDS011;48440;51.224;22.506;2023-11-18T10:10:18;4.57;;;3.42;;
62401;SDS011;48440;51.224;22.506;2023-11-18T10:12:48;5.63;;;4.38;;
62401;SDS011;48440;51.224;22.506;2023-11-18T10:15:18;4.75;;;3.95;;
62401;SDS011;48440;51.224;22.506;2023-11-18T10:17:48;4.97;;;4.07;;
62401;SDS011;48440;51.224;22.506;2023-11-18T10:20:46;4.75;;;3.90;;
62401;SDS011;48440;51.224;22.506;2023-11-18T10:23:12;5.95;;;4.15;;
62401;SDS011;48440;51.224;22.506;2023-11-18T10:25:47;5.28;;;4.07;;
62401;SDS011;48440;51.224;22.506;2023-11-18T10:28:21;4.88;;;4.18;;
62401;SDS011;48440;51.224;22.506;2023-11-18T10:30:50;6.32;;;3.90;;
62401;SDS011;48440;51.224;22.506;2023-11-18T10:33:16;4.55;;;3.70;;
62401;SDS011;48440;51.224;22.506;2023-11-18T10:35:52;5.30;;;3.85;;
62401;SDS011;48440;51.224;22.506;2023-11-18T10:38:20;4.20;;;3.60;;
62401;SDS011;48440;51.224;22.506;2023-11-18T10:40:51;5.13;;;3.78;;
62401;SDS011;48440;51.224;22.506;2023-11-18T10:43:18;4.82;;;3.85;;
62401;SDS011;48440;51.224;22.506;2023-11-18T10:45:43;4.45;;;3.80;;
62401;SDS011;48440;51.224;22.506;2023-11-18T10:48:12;5.07;;;3.60;;
62401;SDS011;48440;51.224;22.506;2023-11-18T10:50:41;5.15;;;3.85;;
62401;SDS011;48440;51.224;22.506;2023-11-18T10:53:10;5.10;;;3.67;;
62401;SDS011;48440;51.224;22.506;2023-11-18T10:55:38;4.15;;;3.65;;
62401;SDS011;48440;51.224;22.506;2023-11-18T10:58:05;4.85;;;4.00;;
62401;SDS011;48440;51.224;22.506;2023-11-18T11:00:51;4.35;;;3.85;;
62401;SDS011;48440;51.224;22.506;2023-11-18T11:03:25;5.00;;;4.15;;
62401;SDS011;48440;51.224;22.506;2023-11-18T11:05:52;5.93;;;4.18;;
62401;SDS011;48440;51.224;22.506;2023-11-18T11:08:19;4.82;;;4.30;;
62401;SDS011;48440;51.224;22.506;2023-11-18T11:10:45;4.95;;;3.83;;
62401;SDS011;48440;51.224;22.506;2023-11-18T11:13:13;5.00;;;4.30;;
62401;SDS011;48440;51.224;22.506;2023-11-18T11:15:43;5.50;;;4.10;;
62401;SDS011;48440;51.224;22.506;2023-11-18T11:18:14;5.13;;;4.30;;
62401;SDS011;48440;51.224;22.506;2023-11-18T11:20:59;6.05;;;4.57;;
62401;SDS011;48440;51.224;22.506;2023-11-18T11:31:42;5.80;;;4.57;;
62401;SDS011;48440;51.224;22.506;2023-11-18T11:34:20;5.30;;;4.53;;
62401;SDS011;48440;51.224;22.506;2023-11-18T11:36:49;5.90;;;4.47;;
62401;SDS011;48440;51.224;22.506;2023-11-18T11:39:16;5.80;;;4.70;;
62401;SDS011;48440;51.224;22.506;2023-11-18T11:41:50;6.05;;;4.40;;
62401;SDS011;48440;51.224;22.506;2023-11-18T11:44:17;6.00;;;4.63;;
62401;SDS011;48440;51.224;22.506;2023-11-18T11:46:46;5.45;;;4.45;;
62401;SDS011;48440;51.224;22.506;2023-11-18T11:49:18;8.00;;;4.53;;
62401;SDS011;48440;51.224;22.506;2023-11-18T11:55:07;5.18;;;4.68;;
62401;SDS011;48440;51.224;22.506;2023-11-18T11:57:38;4.88;;;4.30;;
62401;SDS011;48440;51.224;22.506;2023-11-18T12:00:04;6.05;;;4.65;;
62401;SDS011;48440;51.224;22.506;2023-11-18T12:02:40;4.50;;;3.90;;
62401;SDS011;48440;51.224;22.506;2023-11-18T12:07:44;5.20;;;4.20;;
62401;SDS011;48440;51.224;22.506;2023-11-18T12:10:11;5.22;;;4.30;;
62401;SDS011;48440;51.224;22.506;2023-11-18T12:12:45;5.35;;;4.28;;
62401;SDS011;48440;51.224;22.506;2023-11-18T12:15:10;4.97;;;4.05;;
62401;SDS011;48440;51.224;22.506;2023-11-18T12:18:28;4.72;;;4.03;;
62401;SDS011;48440;51.224;22.506;2023-11-18T12:20:39;5.28;;;4.30;;
62401;SDS011;48440;51.224;22.506;2023-11-18T12:23:19;5.80;;;4.55;;
62401;SDS011;48440;51.224;22.506;2023-11-18T12:25:48;5.00;;;4.38;;
62401;SDS011;48440;51.224;22.506;2023-11-18T12:28:19;5.75;;;4.35;;
62401;SDS011;48440;51.224;22.506;2023-11-18T12:31:01;5.32;;;4.15;;
62401;SDS011;48440;51.224;22.506;2023-11-18T12:41:41;4.78;;;4.18;;
62401;SDS011;48440;51.224;22.506;2023-11-18T12:49:10;5.75;;;4.43;;
62401;SDS011;48440;51.224;22.506;2023-11-18T12:51:40;5.53;;;4.00;;
62401;SDS011;48440;51.224;22.506;2023-11-18T12:54:08;5.85;;;4.40;;
62401;SDS011;48440;51.224;22.506;2023-11-18T12:56:37;6.13;;;4.35;;
62401;SDS011;48440;51.224;22.506;2023-11-18T12:59:03;4.68;;;3.97;;
62401;SDS011;48440;51.224;22.506;2023-11-18T13:01:32;5.75;;;4.47;;
62401;SDS011;48440;51.224;22.506;2023-11-18T13:04:01;5.13;;;4.22;;
62401;SDS011;48440;51.224;22.506;2023-11-18T13:06:27;4.70;;;4.18;;
62401;SDS011;48440;51.224;22.506;2023-11-18T13:08:53;5.45;;;4.03;;
62401;SDS011;48440;51.224;22.506;2023-11-18T13:11:21;5.32;;;4.43;;
62401;SDS011;48440;51.224;22.506;2023-11-18T13:13:51;5.82;;;4.63;;
62401;SDS011;48440;51.224;22.506;2023-11-18T13:16:17;5.53;;;4.53;;
62401;SDS011;48440;51.224;22.506;2023-11-18T13:18:46;6.75;;;5.00;;
62401;SDS011;48440;51.224;22.506;2023-11-18T13:21:17;5.80;;;4.43;;
62401;SDS011;48440;51.224;22.506;2023-11-18T13:23:47;5.32;;;4.43;;
62401;SDS011;48440;51.224;22.506;2023-11-18T13:26:14;5.85;;;4.63;;
62401;SDS011;48440;51.224;22.506;2023-11-18T13:28:40;5.70;;;4.57;;
62401;SDS011;48440;51.224;22.506;2023-11-18T13:31:06;6.20;;;4.93;;
62401;SDS011;48440;51.224;22.506;2023-11-18T13:33:41;5.82;;;4.35;;
62401;SDS011;48440;51.224;22.506;2023-11-18T13:36:07;5.07;;;4.55;;
62401;SDS011;48440;51.224;22.506;2023-11-18T13:38:35;6.55;;;4.68;;
62401;SDS011;48440;51.224;22.506;2023-11-18T13:41:02;7.07;;;4.97;;
62401;SDS011;48440;51.224;22.506;2023-11-18T13:43:40;6.30;;;4.60;;
62401;SDS011;48440;51.224;22.506;2023-11-18T13:46:14;7.60;;;5.10;;
62401;SDS011;48440;51.224;22.506;2023-11-18T13:48:48;7.88;;;5.05;;
62401;SDS011;48440;51.224;22.506;2023-11-18T13:51:14;6.53;;;4.82;;
62401;SDS011;48440;51.224;22.506;2023-11-18T13:53:41;7.45;;;5.10;;
62401;SDS011;48440;51.224;22.506;2023-11-18T13:56:11;6.78;;;5.07;;
62401;SDS011;48440;51.224;22.506;2023-11-18T13:58:38;6.70;;;4.90;;
62401;SDS011;48440;51.224;22.506;2023-11-18T14:01:07;6.30;;;5.30;;
62401;SDS011;48440;51.224;22.506;2023-11-18T14:03:37;7.00;;;5.38;;
62401;SDS011;48440;51.224;22.506;2023-11-18T14:06:05;8.23;;;5.53;;
62401;SDS011;48440;51.224;22.506;2023-11-18T14:08:31;7.95;;;5.93;;
62401;SDS011;48440;51.224;22.506;2023-11-18T14:10:58;8.82;;;6.05;;
62401;SDS011;48440;51.224;22.506;2023-11-18T14:13:23;9.07;;;6.85;;
62401;SDS011;48440;51.224;22.506;2023-11-18T14:15:49;9.63;;;6.43;;
62401;SDS011;48440;51.224;22.506;2023-11-18T14:18:20;10.10;;;6.93;;
62401;SDS011;48440;51.224;22.506;2023-11-18T14:20:46;11.55;;;7.85;;
62401;SDS011;48440;51.224;22.506;2023-11-18T14:23:13;10.15;;;7.85;;
62401;SDS011;48440;51.224;22.506;2023-11-18T14:25:39;10.55;;;7.25;;
62401;SDS011;48440;51.224;22.506;2023-11-18T14:28:04;10.23;;;7.32;;
62401;SDS011;48440;51.224;22.506;2023-11-18T14:30:30;12.88;;;8.07;;
62401;SDS011;48440;51.224;22.506;2023-11-18T14:32:55;11.77;;;7.70;;
62401;SDS011;48440;51.224;22.506;2023-11-18T14:35:21;10.55;;;7.78;;
62401;SDS011;48440;51.224;22.506;2023-11-18T14:37:47;10.07;;;7.35;;
62401;SDS011;48440;51.224;22.506;2023-11-18T14:40:13;10.60;;;7.93;;
62401;SDS011;48440;51.224;22.506;2023-11-18T14:42:43;11.35;;;7.75;;
62401;SDS011;48440;51.224;22.506;2023-11-18T14:45:13;9.88;;;6.93;;
62401;SDS011;48440;51.224;22.506;2023-11-18T14:47:40;11.30;;;8.27;;
62401;SDS011;48440;51.224;22.506;2023-11-18T14:50:06;11.07;;;7.43;;
62401;SDS011;48440;51.224;22.506;2023-11-18T14:52:49;9.60;;;7.60;;
62401;SDS011;48440;51.224;22.506;2023-11-18T14:55:17;10.20;;;7.15;;
62401;SDS011;48440;51.224;22.506;2023-11-18T14:57:43;9.65;;;7.38;;
62401;SDS011;48440;51.224;22.506;2023-11-18T15:00:10;9.75;;;7.57;;
62401;SDS011;48440;51.224;22.506;2023-11-18T15:02:47;11.10;;;8.43;;
62401;SDS011;48440;51.224;22.506;2023-11-18T15:05:16;10.18;;;7.93;;
62401;SDS011;48440;51.224;22.506;2023-11-18T15:07:46;11.00;;;7.65;;
62401;SDS011;48440;51.224;22.506;2023-11-18T15:10:16;10.45;;;7.53;;